ENOA

Oseberg A Platform Heliport

Norway
METAR ENOA 151950Z 16017KT 0050 FG VV001 13/13 Q1014 W///S3
Observed Flight Rules
Jul-15 @ 19:50 UTC (an hour ago) Instrument Flight Rules
Wind Visibility Clouds Conditions
160° at 17 knots 48 meters
  • Vertical visibility at 100' AGL
  • Fog
Temperatures Readings
Current 13°C / 55°F
Dewpoint 13°C / 55°F
Humidity 100%
Altimeter 29.94" Hg
Pressure 1014 hPa
Elevation 5
METAR ENOA 151950Z 16017KT 0050 FG VV001 13/13 Q1014 W///S3
Observed Flight Rules
Jul-15 @ 19:50 UTC
(an hour ago)
LIFR
Wind Visibility
160° at 17 knots 48 meters
Clouds
  • Vertical visibility at 100' AGL
Conditions
  • Fog
Temperature Dewpoint
13°C / 55°F 13°C / 55°F
Humidity Altimeter Pressure
100% 29.94" Hg 1014 hPa